Search for airport 
image banner adimage banner adimage banner ad
image banner ad

CL05 - First Interstate Bank Operations Center

Located in Fremont, United States

ICAO - CL05, IATA -

Data provided by Airmate  

General information

Coordinates: N37°32'53" W121°58'46"
Elevation is 112 feet MSL.
Magnetic variation is 16° East
View others Airports in California

Operational data

Special qualification required
Current time UTC:
Current local time:
Weather at : KPAO - Palo Alto ( 15 km )
METAR: KPAO 231447Z 00000KT 5SM BR OVC007 14/13 A2998
View NOTAMs / SUP AIP / TFR affecting this airport [VIEW]
Communications frequencies: [VIEW]

Runways:

Airport contact information

Address: Fremont United States

Satellite view of CL05